Pisgah, Alabama
Current Conditions -  °F | °C
As of 9:35 AM on Monday 22 Dec 2014 (Local Time) from K4A6 Reporting Station
Overcast Overcast  
Wind Chill: 46°   Ceiling: 1200
Heat Index: 48°   Visibility: 9mi
Dew Point: 45°   Wind: 5mph
Humidity: 87%   Direction: 160°SSE
Pressure: 29.96"   Gusts: NA
Location:  34.68°N, 85.85°W
Report Text: K4A6 221535Z AUTO 16004KT 9SM OVC012 09/07 A2996 RMK AO2
Loading
Personal Weather Stations






























Interactive Weather Map New forecast layout! Learn more

10-Day Weather Forecast

Advertisements
Track Severe Weather on mobile